PWSweather.com
Personal Weather Stations
Station Observations
KCOGRAND2
Redlands, Southcamp Road & Dakota Circle, Grand Junction, CO 81507

Redlands, Southcamp Road & Dakota CircleGrand Junction, CO 81507

Lat: 39.055, Lon: -108.637

Elevation: 4870

Station Type: RadioShack WX200

High Low Average
Temperature 74.5°F23.6°C 54.5°F12.5°C 65.6°F18.7°C
Dew Point 28.0°F-2.2°C 5.4°F-14.8°C 14.2°F-9.9°C
Winds 10.0 mph 16.1 kmh Calm Calm 4.0 mph S6.4 kmh S
Wind Gusts 19.9 mph32.0 kmh -- 8.0 mph12.9 kmh
Humidity 35% 11% 17%
Pressure 24.89 in842.9 mb 24.77 in838.8 mb -
Precipitation 0.00 in0.0 mm - -
Hour Temp Dew Point Humidity Winds Wind Gusts Pressure Precip Precip Rate Daily Precip Total
12:00 AM 64.0°F17.8°C 12.2°F-11.0°C 13% 2.0 mph ESE3.2 kmh ESE 4.5 mph7.2 kmh 24.77 in838.8 mb 0.00 in0.0 mm 0.00 in/hr0.0 mm/hr 0.00 in0.0 mm
12:05 AM 63.3°F17.4°C 11.7°F-11.3°C 13% 2.0 mph ESE3.2 kmh ESE 4.5 mph7.2 kmh 24.77 in838.8 mb 0.00 in0.0 mm 0.00 in/hr0.0 mm/hr 0.00 in0.0 mm
12:10 AM 63.1°F17.3°C 11.5°F-11.4°C 13% 2.0 mph E3.2 kmh E 3.6 mph5.8 kmh 24.77 in838.8 mb 0.00 in0.0 mm 0.00 in/hr0.0 mm/hr 0.00 in0.0 mm
12:15 AM 61.7°F16.5°C 10.4°F-12.0°C 13% 1.0 mph E1.6 kmh E 3.6 mph5.8 kmh 24.77 in838.8 mb 0.00 in0.0 mm 0.00 in/hr0.0 mm/hr 0.00 in0.0 mm
12:21 AM 60.6°F15.9°C 11.1°F-11.6°C 14% 2.0 mph E3.2 kmh E 6.7 mph10.8 kmh 24.77 in838.8 mb 0.00 in0.0 mm 0.00 in/hr0.0 mm/hr 0.00 in0.0 mm
12:26 AM 61.5°F16.4°C 18.9°F-7.3°C 19% 4.0 mph E6.4 kmh E 6.9 mph11.1 kmh 24.77 in838.8 mb 0.00 in0.0 mm 0.00 in/hr0.0 mm/hr 0.00 in0.0 mm
12:31 AM 60.8°F16.0°C 18.3°F-7.6°C 19% 4.0 mph ENE6.4 kmh ENE 3.6 mph5.8 kmh 24.77 in838.8 mb 0.00 in0.0 mm 0.00 in/hr0.0 mm/hr 0.00 in0.0 mm
12:36 AM 59.9°F15.5°C 19.9°F-6.7°C 21% 3.0 mph ENE4.8 kmh ENE 4.5 mph7.2 kmh 24.77 in838.8 mb 0.00 in0.0 mm 0.00 in/hr0.0 mm/hr 0.00 in0.0 mm
12:41 AM 59.4°F15.2°C 20.5°F-6.4°C 22% 2.0 mph ENE3.2 kmh ENE 4.5 mph7.2 kmh 24.77 in838.8 mb 0.00 in0.0 mm 0.00 in/hr0.0 mm/hr 0.00 in0.0 mm
12:46 AM 58.8°F14.9°C 22.1°F-5.5°C 24% 1.0 mph ENE1.6 kmh ENE 3.1 mph5.0 kmh 24.77 in838.8 mb 0.00 in0.0 mm 0.00 in/hr0.0 mm/hr 0.00 in0.0 mm
12:51 AM 59.2°F15.1°C 22.5°F-5.3°C 24% 1.0 mph ENE1.6 kmh ENE 4.5 mph7.2 kmh 24.77 in838.8 mb 0.00 in0.0 mm 0.00 in/hr0.0 mm/hr 0.00 in0.0 mm
12:56 AM 59.5°F15.3°C 22.6°F-5.2°C 24% 3.0 mph ENE4.8 kmh ENE 4.9 mph7.9 kmh 24.77 in838.8 mb 0.00 in0.0 mm 0.00 in/hr0.0 mm/hr 0.00 in0.0 mm
01:01 AM 58.3°F14.6°C 21.7°F-5.7°C 24% 2.0 mph ENE3.2 kmh ENE 4.0 mph6.4 kmh 24.77 in838.8 mb 0.00 in0.0 mm 0.00 in/hr0.0 mm/hr 0.00 in0.0 mm
01:06 AM 58.1°F14.5°C 22.5°F-5.3°C 25% 2.0 mph ENE3.2 kmh ENE 4.0 mph6.4 kmh 24.77 in838.8 mb 0.00 in0.0 mm 0.00 in/hr0.0 mm/hr 0.00 in0.0 mm
01:11 AM 58.1°F14.5°C 22.5°F-5.3°C 25% 1.0 mph ENE1.6 kmh ENE 3.1 mph5.0 kmh 24.77 in838.8 mb 0.00 in0.0 mm 0.00 in/hr0.0 mm/hr 0.00 in0.0 mm
01:16 AM 58.1°F14.5°C 22.5°F-5.3°C 25% Calm Calm -- 24.77 in838.8 mb 0.00 in0.0 mm 0.00 in/hr0.0 mm/hr 0.00 in0.0 mm
01:21 AM 58.6°F14.8°C 23.0°F-5.0°C 25% Calm Calm 4.0 mph6.4 kmh 24.77 in838.8 mb 0.00 in0.0 mm 0.00 in/hr0.0 mm/hr 0.00 in0.0 mm
01:26 AM 58.8°F14.9°C 22.1°F-5.5°C 24% 2.0 mph ENE3.2 kmh ENE 5.4 mph8.7 kmh 24.77 in838.8 mb 0.00 in0.0 mm 0.00 in/hr0.0 mm/hr 0.00 in0.0 mm
01:31 AM 59.4°F15.2°C 22.6°F-5.2°C 24% 4.0 mph ENE6.4 kmh ENE 5.4 mph8.7 kmh 24.77 in838.8 mb 0.00 in0.0 mm 0.00 in/hr0.0 mm/hr 0.00 in0.0 mm
01:36 AM 58.3°F14.6°C 21.7°F-5.7°C 24% 4.0 mph ENE6.4 kmh ENE 5.4 mph8.7 kmh 24.77 in838.8 mb 0.00 in0.0 mm 0.00 in/hr0.0 mm/hr 0.00 in0.0 mm
01:41 AM 57.6°F14.2°C 21.0°F-6.1°C 24% 3.0 mph ENE4.8 kmh ENE 4.5 mph7.2 kmh 24.77 in838.8 mb 0.00 in0.0 mm 0.00 in/hr0.0 mm/hr 0.00 in0.0 mm
01:46 AM 56.7°F13.7°C 20.3°F-6.5°C 24% 2.0 mph ENE3.2 kmh ENE 3.6 mph5.8 kmh 24.77 in838.8 mb 0.00 in0.0 mm 0.00 in/hr0.0 mm/hr 0.00 in0.0 mm
01:51 AM 56.7°F13.7°C 20.3°F-6.5°C 24% 1.0 mph ENE1.6 kmh ENE 3.6 mph5.8 kmh 24.77 in838.8 mb 0.00 in0.0 mm 0.00 in/hr0.0 mm/hr 0.00 in0.0 mm
01:56 AM 57.4°F14.1°C 21.9°F-5.6°C 25% Calm Calm 4.0 mph6.4 kmh 24.77 in838.8 mb 0.00 in0.0 mm 0.00 in/hr0.0 mm/hr 0.00 in0.0 mm
02:01 AM 57.6°F14.2°C 21.0°F-6.1°C 24% 1.0 mph ENE1.6 kmh ENE 3.1 mph5.0 kmh 24.77 in838.8 mb 0.00 in0.0 mm 0.00 in/hr0.0 mm/hr 0.00 in0.0 mm
02:06 AM 59.2°F15.1°C 20.3°F-6.5°C 22% 1.0 mph ENE1.6 kmh ENE 4.0 mph6.4 kmh 24.77 in838.8 mb 0.00 in0.0 mm 0.00 in/hr0.0 mm/hr 0.00 in0.0 mm
02:11 AM 59.7°F15.4°C 17.4°F-8.1°C 19% 2.0 mph ENE3.2 kmh ENE 4.9 mph7.9 kmh 24.77 in838.8 mb 0.00 in0.0 mm 0.00 in/hr0.0 mm/hr 0.00 in0.0 mm
02:16 AM 60.1°F15.6°C 13.8°F-10.1°C 16% 3.0 mph ENE4.8 kmh ENE 4.9 mph7.9 kmh 24.77 in838.8 mb 0.00 in0.0 mm 0.00 in/hr0.0 mm/hr 0.00 in0.0 mm
02:21 AM 59.5°F15.3°C 14.7°F-9.6°C 17% 2.0 mph ENE3.2 kmh ENE 4.0 mph6.4 kmh 24.77 in838.8 mb 0.00 in0.0 mm 0.00 in/hr0.0 mm/hr 0.00 in0.0 mm
02:26 AM 60.6°F15.9°C 11.1°F-11.6°C 14% 3.0 mph E4.8 kmh E 5.8 mph9.3 kmh 24.77 in838.8 mb 0.00 in0.0 mm 0.00 in/hr0.0 mm/hr 0.00 in0.0 mm
02:31 AM 61.0°F16.1°C 6.1°F-14.4°C 11% 3.0 mph SE4.8 kmh SE 6.3 mph10.1 kmh 24.77 in838.8 mb 0.00 in0.0 mm 0.00 in/hr0.0 mm/hr 0.00 in0.0 mm
02:36 AM 62.6°F17.0°C 7.3°F-13.7°C 11% 3.0 mph S4.8 kmh S 6.9 mph11.1 kmh 24.77 in838.8 mb 0.00 in0.0 mm 0.00 in/hr0.0 mm/hr 0.00 in0.0 mm
02:41 AM 63.3°F17.4°C 7.9°F-13.4°C 11% 4.0 mph S6.4 kmh S 9.2 mph14.8 kmh 24.77 in838.8 mb 0.00 in0.0 mm 0.00 in/hr0.0 mm/hr 0.00 in0.0 mm
02:47 AM 64.2°F17.9°C -5537.2°C - 4.0 mph S6.4 kmh S 8.3 mph13.4 kmh 24.77 in838.8 mb 0.00 in0.0 mm 0.00 in/hr0.0 mm/hr 0.00 in0.0 mm
02:52 AM 64.2°F17.9°C -5537.2°C - 5.0 mph S8.0 kmh S 8.3 mph13.4 kmh 24.77 in838.8 mb 0.00 in0.0 mm 0.00 in/hr0.0 mm/hr 0.00 in0.0 mm
02:57 AM 59.4°F15.2°C 10.2°F-12.1°C 14% 5.0 mph SW8.0 kmh SW 7.4 mph11.9 kmh 24.77 in838.8 mb 0.00 in0.0 mm 0.00 in/hr0.0 mm/hr 0.00 in0.0 mm
03:02 AM 57.9°F14.4°C 13.5°F-10.3°C 17% 4.0 mph WNW6.4 kmh WNW 5.8 mph9.3 kmh 24.77 in838.8 mb 0.00 in0.0 mm 0.00 in/hr0.0 mm/hr 0.00 in0.0 mm
03:07 AM 56.5°F13.6°C 22.1°F-5.5°C 26% 4.0 mph NNW6.4 kmh NNW 7.4 mph11.9 kmh 24.77 in838.8 mb 0.00 in0.0 mm 0.00 in/hr0.0 mm/hr 0.00 in0.0 mm
03:12 AM 55.6°F13.1°C 24.6°F-4.1°C 30% 4.0 mph NW6.4 kmh NW 7.4 mph11.9 kmh 24.80 in839.8 mb 0.00 in0.0 mm 0.00 in/hr0.0 mm/hr 0.00 in0.0 mm
03:17 AM 55.4°F13.0°C 27.5°F-2.5°C 34% 3.0 mph WNW4.8 kmh WNW 5.4 mph8.7 kmh 24.80 in839.8 mb 0.00 in0.0 mm 0.00 in/hr0.0 mm/hr 0.00 in0.0 mm
03:22 AM 54.7°F12.6°C 27.5°F-2.5°C 35% 2.0 mph WSW3.2 kmh WSW 3.1 mph5.0 kmh 24.80 in839.8 mb 0.00 in0.0 mm 0.00 in/hr0.0 mm/hr 0.00 in0.0 mm
03:27 AM 54.5°F12.5°C 27.5°F-2.5°C 35% Calm Calm 4.9 mph7.9 kmh 24.80 in839.8 mb 0.00 in0.0 mm 0.00 in/hr0.0 mm/hr 0.00 in0.0 mm
03:32 AM 54.9°F12.7°C 27.7°F-2.4°C 35% Calm Calm -- 24.80 in839.8 mb 0.00 in0.0 mm 0.00 in/hr0.0 mm/hr 0.00 in0.0 mm
03:37 AM 55.9°F13.3°C 28.0°F-2.2°C 34% Calm Calm 4.0 mph6.4 kmh 24.80 in839.8 mb 0.00 in0.0 mm 0.00 in/hr0.0 mm/hr 0.00 in0.0 mm
03:42 AM 56.3°F13.5°C 26.1°F-3.3°C 31% 1.0 mph SW1.6 kmh SW 4.9 mph7.9 kmh 24.80 in839.8 mb 0.00 in0.0 mm 0.00 in/hr0.0 mm/hr 0.00 in0.0 mm
03:47 AM 56.8°F13.8°C 25.0°F-3.9°C 29% Calm Calm 2.7 mph4.3 kmh 24.80 in839.8 mb 0.00 in0.0 mm 0.00 in/hr0.0 mm/hr 0.00 in0.0 mm
03:52 AM 57.4°F14.1°C 23.7°F-4.6°C 27% Calm Calm -- 24.80 in839.8 mb 0.00 in0.0 mm 0.00 in/hr0.0 mm/hr 0.00 in0.0 mm
03:57 AM 59.2°F15.1°C 23.4°F-4.8°C 25% Calm Calm 3.1 mph5.0 kmh 24.80 in839.8 mb 0.00 in0.0 mm 0.00 in/hr0.0 mm/hr 0.00 in0.0 mm
04:02 AM 60.6°F15.9°C 18.1°F-7.7°C 19% 1.0 mph SW1.6 kmh SW 3.6 mph5.8 kmh 24.80 in839.8 mb 0.00 in0.0 mm 0.00 in/hr0.0 mm/hr 0.00 in0.0 mm
04:07 AM 59.9°F15.5°C 17.6°F-8.0°C 19% 2.0 mph SW3.2 kmh SW 4.5 mph7.2 kmh 24.80 in839.8 mb 0.00 in0.0 mm 0.00 in/hr0.0 mm/hr 0.00 in0.0 mm
04:12 AM 59.4°F15.2°C 14.5°F-9.7°C 17% 3.0 mph S4.8 kmh S 7.4 mph11.9 kmh 24.80 in839.8 mb 0.00 in0.0 mm 0.00 in/hr0.0 mm/hr 0.00 in0.0 mm
04:17 AM 61.5°F16.4°C 11.8°F-11.2°C 14% 4.0 mph SSE6.4 kmh SSE 6.3 mph10.1 kmh 24.80 in839.8 mb 0.00 in0.0 mm 0.00 in/hr0.0 mm/hr 0.00 in0.0 mm
04:22 AM 62.8°F17.1°C 7.5°F-13.6°C 11% 3.0 mph S4.8 kmh S 5.8 mph9.3 kmh 24.80 in839.8 mb 0.00 in0.0 mm 0.00 in/hr0.0 mm/hr 0.00 in0.0 mm
04:27 AM 63.0°F17.2°C 7.7°F-13.5°C 11% 4.0 mph SSE6.4 kmh SSE 6.7 mph10.8 kmh 24.80 in839.8 mb 0.00 in0.0 mm 0.00 in/hr0.0 mm/hr 0.00 in0.0 mm
04:32 AM 61.7°F16.5°C 6.6°F-14.1°C 11% 3.0 mph SSE4.8 kmh SSE 6.3 mph10.1 kmh 24.80 in839.8 mb 0.00 in0.0 mm 0.00 in/hr0.0 mm/hr 0.00 in0.0 mm
04:37 AM 61.3°F16.3°C 6.4°F-14.2°C 11% 3.0 mph SSE4.8 kmh SSE 5.4 mph8.7 kmh 24.80 in839.8 mb 0.00 in0.0 mm 0.00 in/hr0.0 mm/hr 0.00 in0.0 mm
04:42 AM 61.2°F16.2°C 6.3°F-14.3°C 11% 3.0 mph SSE4.8 kmh SSE 4.9 mph7.9 kmh 24.80 in839.8 mb 0.00 in0.0 mm 0.00 in/hr0.0 mm/hr 0.00 in0.0 mm
04:47 AM 60.8°F16.0°C 5.9°F-14.5°C 11% 2.0 mph S3.2 kmh S 4.5 mph7.2 kmh 24.80 in839.8 mb 0.00 in0.0 mm 0.00 in/hr0.0 mm/hr 0.00 in0.0 mm
04:52 AM 61.0°F16.1°C 6.1°F-14.4°C 11% 2.0 mph SSE3.2 kmh SSE 5.8 mph9.3 kmh 24.80 in839.8 mb 0.00 in0.0 mm 0.00 in/hr0.0 mm/hr 0.00 in0.0 mm
04:57 AM 61.0°F16.1°C 6.1°F-14.4°C 11% 2.0 mph SSE3.2 kmh SSE 4.0 mph6.4 kmh 24.83 in840.8 mb 0.00 in0.0 mm 0.00 in/hr0.0 mm/hr 0.00 in0.0 mm
05:02 AM 60.8°F16.0°C 5.9°F-14.5°C 11% 2.0 mph SSE3.2 kmh SSE 5.8 mph9.3 kmh 24.83 in840.8 mb 0.00 in0.0 mm 0.00 in/hr0.0 mm/hr 0.00 in0.0 mm
05:07 AM 61.0°F16.1°C 6.1°F-14.4°C 11% 2.0 mph SSE3.2 kmh SSE 6.9 mph11.1 kmh 24.83 in840.8 mb 0.00 in0.0 mm 0.00 in/hr0.0 mm/hr 0.00 in0.0 mm
05:12 AM 61.2°F16.2°C 6.3°F-14.3°C 11% 3.0 mph SSE4.8 kmh SSE 8.3 mph13.4 kmh 24.83 in840.8 mb 0.00 in0.0 mm 0.00 in/hr0.0 mm/hr 0.00 in0.0 mm
05:17 AM 61.7°F16.5°C 6.6°F-14.1°C 11% 5.0 mph SSE8.0 kmh SSE 7.4 mph11.9 kmh 24.83 in840.8 mb 0.00 in0.0 mm 0.00 in/hr0.0 mm/hr 0.00 in0.0 mm
05:22 AM 61.5°F16.4°C 6.6°F-14.1°C 11% 4.0 mph SSE6.4 kmh SSE 6.9 mph11.1 kmh 24.83 in840.8 mb 0.00 in0.0 mm 0.00 in/hr0.0 mm/hr 0.00 in0.0 mm
05:27 AM 61.2°F16.2°C 6.3°F-14.3°C 11% 3.0 mph SSE4.8 kmh SSE 6.9 mph11.1 kmh 24.83 in840.8 mb 0.00 in0.0 mm 0.00 in/hr0.0 mm/hr 0.00 in0.0 mm
05:32 AM 61.3°F16.3°C 6.4°F-14.2°C 11% 4.0 mph S6.4 kmh S 7.8 mph12.6 kmh 24.83 in840.8 mb 0.00 in0.0 mm 0.00 in/hr0.0 mm/hr 0.00 in0.0 mm
05:37 AM 61.7°F16.5°C 6.6°F-14.1°C 11% 4.0 mph S6.4 kmh S 8.7 mph14.0 kmh 24.83 in840.8 mb 0.00 in0.0 mm 0.00 in/hr0.0 mm/hr 0.00 in0.0 mm
05:42 AM 61.7°F16.5°C 6.6°F-14.1°C 11% 4.0 mph S6.4 kmh S 6.9 mph11.1 kmh 24.83 in840.8 mb 0.00 in0.0 mm 0.00 in/hr0.0 mm/hr 0.00 in0.0 mm
05:47 AM 61.5°F16.4°C 6.6°F-14.1°C 11% 4.0 mph S6.4 kmh S 6.7 mph10.8 kmh 24.83 in840.8 mb 0.00 in0.0 mm 0.00 in/hr0.0 mm/hr 0.00 in0.0 mm
05:52 AM 61.7°F16.5°C 6.6°F-14.1°C 11% 4.0 mph S6.4 kmh S 8.3 mph13.4 kmh 24.83 in840.8 mb 0.00 in0.0 mm 0.00 in/hr0.0 mm/hr 0.00 in0.0 mm
05:57 AM 61.9°F16.6°C 6.8°F-14.0°C 11% 5.0 mph S8.0 kmh S 10.1 mph16.3 kmh 24.83 in840.8 mb 0.00 in0.0 mm 0.00 in/hr0.0 mm/hr 0.00 in0.0 mm
06:02 AM 62.2°F16.8°C 7.2°F-13.8°C 11% 6.0 mph S9.7 kmh S 12.1 mph19.5 kmh 24.83 in840.8 mb 0.00 in0.0 mm 0.00 in/hr0.0 mm/hr 0.00 in0.0 mm
06:07 AM 62.1°F16.7°C 7.0°F-13.9°C 11% 6.0 mph S9.7 kmh S 7.8 mph12.6 kmh 24.83 in840.8 mb 0.00 in0.0 mm 0.00 in/hr0.0 mm/hr 0.00 in0.0 mm
06:12 AM 61.9°F16.6°C 6.8°F-14.0°C 11% 5.0 mph S8.0 kmh S 8.3 mph13.4 kmh 24.83 in840.8 mb 0.00 in0.0 mm 0.00 in/hr0.0 mm/hr 0.00 in0.0 mm
06:17 AM 61.7°F16.5°C 6.6°F-14.1°C 11% 4.0 mph S6.4 kmh S 6.3 mph10.1 kmh 24.83 in840.8 mb 0.00 in0.0 mm 0.00 in/hr0.0 mm/hr 0.00 in0.0 mm
06:22 AM 61.5°F16.4°C 6.6°F-14.1°C 11% 4.0 mph S6.4 kmh S 6.7 mph10.8 kmh 24.83 in840.8 mb 0.00 in0.0 mm 0.00 in/hr0.0 mm/hr 0.00 in0.0 mm
06:27 AM 61.0°F16.1°C 6.1°F-14.4°C 11% 2.0 mph S3.2 kmh S 4.9 mph7.9 kmh 24.83 in840.8 mb 0.00 in0.0 mm 0.00 in/hr0.0 mm/hr 0.00 in0.0 mm
06:32 AM 61.3°F16.3°C 6.4°F-14.2°C 11% 2.0 mph S3.2 kmh S 6.7 mph10.8 kmh 24.83 in840.8 mb 0.00 in0.0 mm 0.00 in/hr0.0 mm/hr 0.00 in0.0 mm
06:37 AM 61.0°F16.1°C 6.1°F-14.4°C 11% 2.0 mph S3.2 kmh S 4.0 mph6.4 kmh 24.83 in840.8 mb 0.00 in0.0 mm 0.00 in/hr0.0 mm/hr 0.00 in0.0 mm
06:43 AM 60.1°F15.6°C 5.4°F-14.8°C 11% 3.0 mph SE4.8 kmh SE 9.2 mph14.8 kmh 24.83 in840.8 mb 0.00 in0.0 mm 0.00 in/hr0.0 mm/hr 0.00 in0.0 mm
06:48 AM 59.7°F15.4°C 7.0°F-13.9°C 12% 5.0 mph N8.0 kmh N 6.7 mph10.8 kmh 24.83 in840.8 mb 0.00 in0.0 mm 0.00 in/hr0.0 mm/hr 0.00 in0.0 mm
06:53 AM 59.9°F15.5°C 7.2°F-13.8°C 12% 3.0 mph N4.8 kmh N 4.0 mph6.4 kmh 24.83 in840.8 mb 0.00 in0.0 mm 0.00 in/hr0.0 mm/hr 0.00 in0.0 mm
06:58 AM 60.4°F15.8°C 5.7°F-14.6°C 11% 2.0 mph N3.2 kmh N 4.9 mph7.9 kmh 24.86 in841.9 mb 0.00 in0.0 mm 0.00 in/hr0.0 mm/hr 0.00 in0.0 mm
07:03 AM 61.2°F16.2°C 6.3°F-14.3°C 11% 3.0 mph NE4.8 kmh NE 4.9 mph7.9 kmh 24.86 in841.9 mb 0.00 in0.0 mm 0.00 in/hr0.0 mm/hr 0.00 in0.0 mm
07:08 AM 62.1°F16.7°C 7.0°F-13.9°C 11% 3.0 mph ENE4.8 kmh ENE 6.9 mph11.1 kmh 24.86 in841.9 mb 0.00 in0.0 mm 0.00 in/hr0.0 mm/hr 0.00 in0.0 mm
07:13 AM 63.1°F17.3°C 7.9°F-13.4°C 11% 4.0 mph E6.4 kmh E 6.7 mph10.8 kmh 24.86 in841.9 mb 0.00 in0.0 mm 0.00 in/hr0.0 mm/hr 0.00 in0.0 mm
07:18 AM 63.3°F17.4°C 7.9°F-13.4°C 11% 5.0 mph ESE8.0 kmh ESE 7.4 mph11.9 kmh 24.86 in841.9 mb 0.00 in0.0 mm 0.00 in/hr0.0 mm/hr 0.00 in0.0 mm
07:23 AM 63.1°F17.3°C 7.9°F-13.4°C 11% 4.0 mph SE6.4 kmh SE 5.4 mph8.7 kmh 24.86 in841.9 mb 0.00 in0.0 mm 0.00 in/hr0.0 mm/hr 0.00 in0.0 mm
07:28 AM 63.1°F17.3°C 7.9°F-13.4°C 11% 4.0 mph E6.4 kmh E 5.8 mph9.3 kmh 24.86 in841.9 mb 0.00 in0.0 mm 0.00 in/hr0.0 mm/hr 0.00 in0.0 mm
07:33 AM 62.6°F17.0°C 7.3°F-13.7°C 11% 3.0 mph SE4.8 kmh SE 5.8 mph9.3 kmh 24.86 in841.9 mb 0.00 in0.0 mm 0.00 in/hr0.0 mm/hr 0.00 in0.0 mm
07:38 AM 62.1°F16.7°C 7.0°F-13.9°C 11% 4.0 mph SSW6.4 kmh SSW 6.7 mph10.8 kmh 24.86 in841.9 mb 0.00 in0.0 mm 0.00 in/hr0.0 mm/hr 0.00 in0.0 mm
07:43 AM 61.3°F16.3°C 6.4°F-14.2°C 11% 3.0 mph W4.8 kmh W 4.9 mph7.9 kmh 24.86 in841.9 mb 0.00 in0.0 mm 0.00 in/hr0.0 mm/hr 0.00 in0.0 mm
07:48 AM 60.8°F16.0°C 5.9°F-14.5°C 11% 2.0 mph NW3.2 kmh NW 5.8 mph9.3 kmh 24.86 in841.9 mb 0.00 in0.0 mm 0.00 in/hr0.0 mm/hr 0.00 in0.0 mm
07:53 AM 60.1°F15.6°C 13.8°F-10.1°C 16% 4.0 mph NW6.4 kmh NW 7.8 mph12.6 kmh 24.86 in841.9 mb 0.00 in0.0 mm 0.00 in/hr0.0 mm/hr 0.00 in0.0 mm
07:58 AM 59.0°F15.0°C 20.3°F-6.5°C 22% 6.0 mph NW9.7 kmh NW 9.6 mph15.4 kmh 24.86 in841.9 mb 0.00 in0.0 mm 0.00 in/hr0.0 mm/hr 0.00 in0.0 mm
08:03 AM 58.1°F14.5°C 23.4°F-4.8°C 26% 6.0 mph NW9.7 kmh NW 10.5 mph16.9 kmh 24.86 in841.9 mb 0.00 in0.0 mm 0.00 in/hr0.0 mm/hr 0.00 in0.0 mm
08:08 AM 59.2°F15.1°C 23.4°F-4.8°C 25% 5.0 mph NW8.0 kmh NW 8.3 mph13.4 kmh 24.86 in841.9 mb 0.00 in0.0 mm 0.00 in/hr0.0 mm/hr 0.00 in0.0 mm
08:13 AM 58.5°F14.7°C 23.7°F-4.6°C 26% 5.0 mph NW8.0 kmh NW 7.4 mph11.9 kmh 24.89 in842.9 mb 0.00 in0.0 mm 0.00 in/hr0.0 mm/hr 0.00 in0.0 mm
08:18 AM 58.1°F14.5°C 24.3°F-4.3°C 27% 4.0 mph WNW6.4 kmh WNW 5.8 mph9.3 kmh 24.89 in842.9 mb 0.00 in0.0 mm 0.00 in/hr0.0 mm/hr 0.00 in0.0 mm
08:23 AM 58.5°F14.7°C 25.5°F-3.6°C 28% 3.0 mph WNW4.8 kmh WNW 5.4 mph8.7 kmh 24.89 in842.9 mb 0.00 in0.0 mm 0.00 in/hr0.0 mm/hr 0.00 in0.0 mm
08:28 AM 58.6°F14.8°C 24.8°F-4.0°C 27% 2.0 mph WNW3.2 kmh WNW 3.6 mph5.8 kmh 24.89 in842.9 mb 0.00 in0.0 mm 0.00 in/hr0.0 mm/hr 0.00 in0.0 mm
08:33 AM 59.0°F15.0°C 24.1°F-4.4°C 26% 1.0 mph WNW1.6 kmh WNW 4.0 mph6.4 kmh 24.89 in842.9 mb 0.00 in0.0 mm 0.00 in/hr0.0 mm/hr 0.00 in0.0 mm
08:38 AM 59.2°F15.1°C 23.4°F-4.8°C 25% 1.0 mph WNW1.6 kmh WNW 3.6 mph5.8 kmh 24.89 in842.9 mb 0.00 in0.0 mm 0.00 in/hr0.0 mm/hr 0.00 in0.0 mm
08:43 AM 59.9°F15.5°C 23.0°F-5.0°C 24% 2.0 mph WNW3.2 kmh WNW 5.8 mph9.3 kmh 24.89 in842.9 mb 0.00 in0.0 mm 0.00 in/hr0.0 mm/hr 0.00 in0.0 mm
08:48 AM 60.3°F15.7°C 23.4°F-4.8°C 24% 4.0 mph NW6.4 kmh NW 5.4 mph8.7 kmh 24.89 in842.9 mb 0.00 in0.0 mm 0.00 in/hr0.0 mm/hr 0.00 in0.0 mm
08:53 AM 60.8°F16.0°C 20.7°F-6.3°C 21% 4.0 mph NW6.4 kmh NW 4.9 mph7.9 kmh 24.89 in842.9 mb 0.00 in0.0 mm 0.00 in/hr0.0 mm/hr 0.00 in0.0 mm
08:58 AM 61.2°F16.2°C 20.8°F-6.2°C 21% 2.0 mph NW3.2 kmh NW 3.1 mph5.0 kmh 24.89 in842.9 mb 0.00 in0.0 mm 0.00 in/hr0.0 mm/hr 0.00 in0.0 mm
09:03 AM 61.9°F16.6°C 18.0°F-7.8°C 18% 2.0 mph NW3.2 kmh NW 5.8 mph9.3 kmh 24.89 in842.9 mb 0.00 in0.0 mm 0.00 in/hr0.0 mm/hr 0.00 in0.0 mm
09:08 AM 62.6°F17.0°C 15.8°F-9.0°C 16% 4.0 mph NW6.4 kmh NW 6.3 mph10.1 kmh 24.89 in842.9 mb 0.00 in0.0 mm 0.00 in/hr0.0 mm/hr 0.00 in0.0 mm
09:13 AM 63.0°F17.2°C 16.2°F-8.8°C 16% 4.0 mph NW6.4 kmh NW 6.3 mph10.1 kmh 24.89 in842.9 mb 0.00 in0.0 mm 0.00 in/hr0.0 mm/hr 0.00 in0.0 mm
09:18 AM 63.3°F17.4°C 11.7°F-11.3°C 13% 4.0 mph WNW6.4 kmh WNW 5.8 mph9.3 kmh 24.89 in842.9 mb 0.00 in0.0 mm 0.00 in/hr0.0 mm/hr 0.00 in0.0 mm
09:23 AM 63.5°F17.5°C 16.5°F-8.6°C 16% 4.0 mph WNW6.4 kmh WNW 5.4 mph8.7 kmh 24.89 in842.9 mb 0.00 in0.0 mm 0.00 in/hr0.0 mm/hr 0.00 in0.0 mm
09:28 AM 63.7°F17.6°C 12.0°F-11.1°C 13% 4.0 mph NW6.4 kmh NW 5.4 mph8.7 kmh 24.89 in842.9 mb 0.00 in0.0 mm 0.00 in/hr0.0 mm/hr 0.00 in0.0 mm
09:33 AM 63.9°F17.7°C 12.0°F-11.1°C 13% 4.0 mph NW6.4 kmh NW 5.4 mph8.7 kmh 24.89 in842.9 mb 0.00 in0.0 mm 0.00 in/hr0.0 mm/hr 0.00 in0.0 mm
09:38 AM 64.2°F17.9°C 12.4°F-10.9°C 13% 3.0 mph NW4.8 kmh NW 3.6 mph5.8 kmh 24.89 in842.9 mb 0.00 in0.0 mm 0.00 in/hr0.0 mm/hr 0.00 in0.0 mm
09:44 AM 64.4°F18.0°C 12.6°F-10.8°C 13% 2.0 mph NW3.2 kmh NW 4.9 mph7.9 kmh 24.89 in842.9 mb 0.00 in0.0 mm 0.00 in/hr0.0 mm/hr 0.00 in0.0 mm
09:49 AM 64.6°F18.1°C 12.6°F-10.8°C 13% 3.0 mph NW4.8 kmh NW 5.4 mph8.7 kmh 24.89 in842.9 mb 0.00 in0.0 mm 0.00 in/hr0.0 mm/hr 0.00 in0.0 mm
09:54 AM 65.3°F18.5°C 11.5°F-11.4°C 12% 2.0 mph NW3.2 kmh NW 3.1 mph5.0 kmh 24.89 in842.9 mb 0.00 in0.0 mm 0.00 in/hr0.0 mm/hr 0.00 in0.0 mm
09:59 AM 65.7°F18.7°C -5537.2°C - 2.0 mph WNW3.2 kmh WNW 5.8 mph9.3 kmh 24.89 in842.9 mb 0.00 in0.0 mm 0.00 in/hr0.0 mm/hr 0.00 in0.0 mm
10:04 AM 66.6°F19.2°C 12.4°F-10.9°C 12% 3.0 mph WNW4.8 kmh WNW 4.5 mph7.2 kmh 24.89 in842.9 mb 0.00 in0.0 mm 0.00 in/hr0.0 mm/hr 0.00 in0.0 mm
10:09 AM 66.7°F19.3°C -5537.2°C - 2.0 mph WNW3.2 kmh WNW 3.6 mph5.8 kmh 24.89 in842.9 mb 0.00 in0.0 mm 0.00 in/hr0.0 mm/hr 0.00 in0.0 mm
10:14 AM 67.3°F19.6°C -5537.2°C - 2.0 mph WNW3.2 kmh WNW 4.9 mph7.9 kmh 24.89 in842.9 mb 0.00 in0.0 mm 0.00 in/hr0.0 mm/hr 0.00 in0.0 mm
10:19 AM 67.6°F19.8°C -5537.2°C - 3.0 mph NW4.8 kmh NW 4.9 mph7.9 kmh 24.89 in842.9 mb 0.00 in0.0 mm 0.00 in/hr0.0 mm/hr 0.00 in0.0 mm
10:24 AM 68.0°F20.0°C -5537.2°C - 2.0 mph N3.2 kmh N 5.8 mph9.3 kmh 24.89 in842.9 mb 0.00 in0.0 mm 0.00 in/hr0.0 mm/hr 0.00 in0.0 mm
10:29 AM 67.6°F19.8°C -5537.2°C - 3.0 mph SE4.8 kmh SE 6.7 mph10.8 kmh 24.89 in842.9 mb 0.00 in0.0 mm 0.00 in/hr0.0 mm/hr 0.00 in0.0 mm
10:34 AM 68.5°F20.3°C -5537.2°C - 4.0 mph E6.4 kmh E 6.7 mph10.8 kmh 24.89 in842.9 mb 0.00 in0.0 mm 0.00 in/hr0.0 mm/hr 0.00 in0.0 mm
10:39 AM 69.3°F20.7°C -5537.2°C - 4.0 mph E6.4 kmh E 6.9 mph11.1 kmh 24.89 in842.9 mb 0.00 in0.0 mm 0.00 in/hr0.0 mm/hr 0.00 in0.0 mm
10:44 AM 70.5°F21.4°C -5537.2°C - 4.0 mph ESE6.4 kmh ESE 9.2 mph14.8 kmh 24.89 in842.9 mb 0.00 in0.0 mm 0.00 in/hr0.0 mm/hr 0.00 in0.0 mm
10:49 AM 72.1°F22.3°C -5537.2°C - 3.0 mph ESE4.8 kmh ESE 6.3 mph10.1 kmh 24.89 in842.9 mb 0.00 in0.0 mm 0.00 in/hr0.0 mm/hr 0.00 in0.0 mm
10:54 AM 71.4°F21.9°C -5537.2°C - 6.0 mph SSW9.7 kmh SSW 12.1 mph19.5 kmh 24.89 in842.9 mb 0.00 in0.0 mm 0.00 in/hr0.0 mm/hr 0.00 in0.0 mm
10:59 AM 71.2°F21.8°C -5537.2°C - 7.0 mph NW11.3 kmh NW 11.6 mph18.7 kmh 24.89 in842.9 mb 0.00 in0.0 mm 0.00 in/hr0.0 mm/hr 0.00 in0.0 mm
11:04 AM 71.4°F21.9°C -5537.2°C - 6.0 mph NW9.7 kmh NW 11.2 mph18.0 kmh 24.89 in842.9 mb 0.00 in0.0 mm 0.00 in/hr0.0 mm/hr 0.00 in0.0 mm
11:09 AM 70.7°F21.5°C -5537.2°C - 6.0 mph NW9.7 kmh NW 9.6 mph15.4 kmh 24.89 in842.9 mb 0.00 in0.0 mm 0.00 in/hr0.0 mm/hr 0.00 in0.0 mm
11:14 AM 70.5°F21.4°C -5537.2°C - 6.0 mph WNW9.7 kmh WNW 10.5 mph16.9 kmh 24.89 in842.9 mb 0.00 in0.0 mm 0.00 in/hr0.0 mm/hr 0.00 in0.0 mm
11:19 AM 70.9°F21.6°C -5537.2°C - 4.0 mph NW6.4 kmh NW 9.6 mph15.4 kmh 24.89 in842.9 mb 0.00 in0.0 mm 0.00 in/hr0.0 mm/hr 0.00 in0.0 mm
11:24 AM 70.5°F21.4°C -5537.2°C - 4.0 mph NNW6.4 kmh NNW 6.9 mph11.1 kmh 24.89 in842.9 mb 0.00 in0.0 mm 0.00 in/hr0.0 mm/hr 0.00 in0.0 mm
11:29 AM 70.7°F21.5°C -5537.2°C - 5.0 mph N8.0 kmh N 9.2 mph14.8 kmh 24.89 in842.9 mb 0.00 in0.0 mm 0.00 in/hr0.0 mm/hr 0.00 in0.0 mm
11:34 AM 70.9°F21.6°C -5537.2°C - 7.0 mph NW11.3 kmh NW 12.1 mph19.5 kmh 24.89 in842.9 mb 0.00 in0.0 mm 0.00 in/hr0.0 mm/hr 0.00 in0.0 mm
11:40 AM 70.0°F21.1°C -5537.2°C - 9.0 mph W14.5 kmh W 14.3 mph23.0 kmh 24.89 in842.9 mb 0.00 in0.0 mm 0.00 in/hr0.0 mm/hr 0.00 in0.0 mm
11:45 AM 70.2°F21.2°C -5537.2°C - 8.0 mph W12.9 kmh W 8.7 mph14.0 kmh 24.89 in842.9 mb 0.00 in0.0 mm 0.00 in/hr0.0 mm/hr 0.00 in0.0 mm
11:50 AM 70.7°F21.5°C -5537.2°C - 6.0 mph WNW9.7 kmh WNW 10.5 mph16.9 kmh 24.89 in842.9 mb 0.00 in0.0 mm 0.00 in/hr0.0 mm/hr 0.00 in0.0 mm
11:55 AM 71.2°F21.8°C -5537.2°C - 7.0 mph WNW11.3 kmh WNW 11.6 mph18.7 kmh 24.89 in842.9 mb 0.00 in0.0 mm 0.00 in/hr0.0 mm/hr 0.00 in0.0 mm
12:00 PM 71.2°F21.8°C -5537.2°C - 7.0 mph NW11.3 kmh NW 9.6 mph15.4 kmh 24.89 in842.9 mb 0.00 in0.0 mm 0.00 in/hr0.0 mm/hr 0.00 in0.0 mm
12:05 PM 71.1°F21.7°C -5537.2°C - 7.0 mph NW11.3 kmh NW 12.1 mph19.5 kmh 24.89 in842.9 mb 0.00 in0.0 mm 0.00 in/hr0.0 mm/hr 0.00 in0.0 mm
12:10 PM 70.9°F21.6°C -5537.2°C - 9.0 mph NW14.5 kmh NW 13.0 mph20.9 kmh 24.89 in842.9 mb 0.00 in0.0 mm 0.00 in/hr0.0 mm/hr 0.00 in0.0 mm
12:15 PM 71.1°F21.7°C -5537.2°C - 9.0 mph NW14.5 kmh NW 11.2 mph18.0 kmh 24.89 in842.9 mb 0.00 in0.0 mm 0.00 in/hr0.0 mm/hr 0.00 in0.0 mm
12:20 PM 70.7°F21.5°C -5537.2°C - 8.0 mph NNW12.9 kmh NNW 13.0 mph20.9 kmh 24.89 in842.9 mb 0.00 in0.0 mm 0.00 in/hr0.0 mm/hr 0.00 in0.0 mm
12:25 PM 70.9°F21.6°C -5537.2°C - 6.0 mph N9.7 kmh N 10.5 mph16.9 kmh 24.89 in842.9 mb 0.00 in0.0 mm 0.00 in/hr0.0 mm/hr 0.00 in0.0 mm
12:30 PM 70.3°F21.3°C -5537.2°C - 7.0 mph N11.3 kmh N 13.0 mph20.9 kmh 24.89 in842.9 mb 0.00 in0.0 mm 0.00 in/hr0.0 mm/hr 0.00 in0.0 mm
12:35 PM 70.7°F21.5°C -5537.2°C - 9.0 mph NNW14.5 kmh NNW 13.9 mph22.4 kmh 24.89 in842.9 mb 0.00 in0.0 mm 0.00 in/hr0.0 mm/hr 0.00 in0.0 mm
12:40 PM 71.1°F21.7°C -5537.2°C - 8.0 mph NNW12.9 kmh NNW 12.1 mph19.5 kmh 24.89 in842.9 mb 0.00 in0.0 mm 0.00 in/hr0.0 mm/hr 0.00 in0.0 mm
12:45 PM 71.2°F21.8°C -5537.2°C - 7.0 mph NW11.3 kmh NW 11.6 mph18.7 kmh 24.89 in842.9 mb 0.00 in0.0 mm 0.00 in/hr0.0 mm/hr 0.00 in0.0 mm
12:50 PM 71.2°F21.8°C -5537.2°C - 8.0 mph NW12.9 kmh NW 12.1 mph19.5 kmh 24.89 in842.9 mb 0.00 in0.0 mm 0.00 in/hr0.0 mm/hr 0.00 in0.0 mm
12:55 PM 70.5°F21.4°C -5537.2°C - 9.0 mph NW14.5 kmh NW 19.9 mph32.0 kmh 24.89 in842.9 mb 0.00 in0.0 mm 0.00 in/hr0.0 mm/hr 0.00 in0.0 mm
01:00 PM 70.9°F21.6°C -5537.2°C - 10.0 mph NW16.1 kmh NW 15.4 mph24.8 kmh 24.89 in842.9 mb 0.00 in0.0 mm 0.00 in/hr0.0 mm/hr 0.00 in0.0 mm
01:05 PM 71.2°F21.8°C -5537.2°C - 9.0 mph NW14.5 kmh NW 15.9 mph25.6 kmh 24.89 in842.9 mb 0.00 in0.0 mm 0.00 in/hr0.0 mm/hr 0.00 in0.0 mm
01:10 PM 71.1°F21.7°C -5537.2°C - 8.0 mph NW12.9 kmh NW 16.3 mph26.2 kmh 24.89 in842.9 mb 0.00 in0.0 mm 0.00 in/hr0.0 mm/hr 0.00 in0.0 mm
01:15 PM 71.6°F22.0°C -5537.2°C - 8.0 mph NW12.9 kmh NW 11.0 mph17.7 kmh 24.89 in842.9 mb 0.00 in0.0 mm 0.00 in/hr0.0 mm/hr 0.00 in0.0 mm
01:20 PM 71.6°F22.0°C -5537.2°C - 7.0 mph NW11.3 kmh NW 13.4 mph21.6 kmh 24.89 in842.9 mb 0.00 in0.0 mm 0.00 in/hr0.0 mm/hr 0.00 in0.0 mm
01:25 PM 72.3°F22.4°C -5537.2°C - 6.0 mph W9.7 kmh W 6.3 mph10.1 kmh 24.89 in842.9 mb 0.00 in0.0 mm 0.00 in/hr0.0 mm/hr 0.00 in0.0 mm
01:30 PM 72.9°F22.7°C -5537.2°C - 4.0 mph SW6.4 kmh SW 8.7 mph14.0 kmh 24.86 in841.9 mb 0.00 in0.0 mm 0.00 in/hr0.0 mm/hr 0.00 in0.0 mm
01:35 PM 73.0°F22.8°C -5537.2°C - 5.0 mph SW8.0 kmh SW 10.5 mph16.9 kmh 24.86 in841.9 mb 0.00 in0.0 mm 0.00 in/hr0.0 mm/hr 0.00 in0.0 mm
01:40 PM 74.5°F23.6°C -5537.2°C - 6.0 mph W9.7 kmh W 11.2 mph18.0 kmh 24.86 in841.9 mb 0.00 in0.0 mm 0.00 in/hr0.0 mm/hr 0.00 in0.0 mm
01:45 PM 73.8°F23.2°C -5537.2°C - 6.0 mph NW9.7 kmh NW 11.2 mph18.0 kmh 24.86 in841.9 mb 0.00 in0.0 mm 0.00 in/hr0.0 mm/hr 0.00 in0.0 mm
01:50 PM 73.2°F22.9°C -5537.2°C - 5.0 mph W8.0 kmh W 5.4 mph8.7 kmh 24.86 in841.9 mb 0.00 in0.0 mm 0.00 in/hr0.0 mm/hr 0.00 in0.0 mm
01:56 PM 73.8°F23.2°C -5537.2°C - 4.0 mph SW6.4 kmh SW 10.1 mph16.3 kmh 24.86 in841.9 mb 0.00 in0.0 mm 0.00 in/hr0.0 mm/hr 0.00 in0.0 mm
02:01 PM 74.3°F23.5°C -5537.2°C - 6.0 mph SSW9.7 kmh SSW 13.4 mph21.6 kmh 24.86 in841.9 mb 0.00 in0.0 mm 0.00 in/hr0.0 mm/hr 0.00 in0.0 mm
02:06 PM 73.9°F23.3°C -5537.2°C - 8.0 mph S12.9 kmh S 15.4 mph24.8 kmh 24.86 in841.9 mb 0.00 in0.0 mm 0.00 in/hr0.0 mm/hr 0.00 in0.0 mm
02:11 PM 73.9°F23.3°C -5537.2°C - 8.0 mph S12.9 kmh S 15.2 mph24.5 kmh 24.86 in841.9 mb 0.00 in0.0 mm 0.00 in/hr0.0 mm/hr 0.00 in0.0 mm
02:16 PM 73.6°F23.1°C -5537.2°C - 7.0 mph S11.3 kmh S 13.9 mph22.4 kmh 24.86 in841.9 mb 0.00 in0.0 mm 0.00 in/hr0.0 mm/hr 0.00 in0.0 mm
02:21 PM 73.0°F22.8°C -5537.2°C - 6.0 mph SE9.7 kmh SE 15.2 mph24.5 kmh 24.86 in841.9 mb 0.00 in0.0 mm 0.00 in/hr0.0 mm/hr 0.00 in0.0 mm
02:26 PM 72.0°F22.2°C -5537.2°C - 6.0 mph ENE9.7 kmh ENE 10.5 mph16.9 kmh 24.86 in841.9 mb 0.00 in0.0 mm 0.00 in/hr0.0 mm/hr 0.00 in0.0 mm
02:31 PM 72.1°F22.3°C -5537.2°C - 7.0 mph E11.3 kmh E 14.3 mph23.0 kmh 24.86 in841.9 mb 0.00 in0.0 mm 0.00 in/hr0.0 mm/hr 0.00 in0.0 mm
02:36 PM 72.5°F22.5°C -5537.2°C - 7.0 mph E11.3 kmh E 11.6 mph18.7 kmh 24.86 in841.9 mb 0.00 in0.0 mm 0.00 in/hr0.0 mm/hr 0.00 in0.0 mm
02:41 PM 72.3°F22.4°C -5537.2°C - 7.0 mph NE11.3 kmh NE 13.4 mph21.6 kmh 24.86 in841.9 mb 0.00 in0.0 mm 0.00 in/hr0.0 mm/hr 0.00 in0.0 mm
02:46 PM 72.3°F22.4°C -5537.2°C - 8.0 mph NE12.9 kmh NE 13.4 mph21.6 kmh 24.86 in841.9 mb 0.00 in0.0 mm 0.00 in/hr0.0 mm/hr 0.00 in0.0 mm
02:51 PM 72.5°F22.5°C -5537.2°C - 8.0 mph NE12.9 kmh NE 11.6 mph18.7 kmh 24.86 in841.9 mb 0.00 in0.0 mm 0.00 in/hr0.0 mm/hr 0.00 in0.0 mm
02:56 PM 72.3°F22.4°C -5537.2°C - 7.0 mph NE11.3 kmh NE 9.2 mph14.8 kmh 24.86 in841.9 mb 0.00 in0.0 mm 0.00 in/hr0.0 mm/hr 0.00 in0.0 mm
03:01 PM 72.1°F22.3°C -5537.2°C - 6.0 mph ENE9.7 kmh ENE 11.2 mph18.0 kmh 24.86 in841.9 mb 0.00 in0.0 mm 0.00 in/hr0.0 mm/hr 0.00 in0.0 mm
03:11 PM 71.8°F22.1°C -5537.2°C - 7.0 mph NE11.3 kmh NE 15.4 mph24.8 kmh 24.86 in841.9 mb 0.00 in0.0 mm 0.00 in/hr0.0 mm/hr 0.00 in0.0 mm
03:16 PM 72.0°F22.2°C -5537.2°C - 7.0 mph NE11.3 kmh NE 15.2 mph24.5 kmh 24.86 in841.9 mb 0.00 in0.0 mm 0.00 in/hr0.0 mm/hr 0.00 in0.0 mm
03:21 PM 72.1°F22.3°C -5537.2°C - 7.0 mph NE11.3 kmh NE 10.1 mph16.3 kmh 24.86 in841.9 mb 0.00 in0.0 mm 0.00 in/hr0.0 mm/hr 0.00 in0.0 mm
03:26 PM 72.1°F22.3°C -5537.2°C - 6.0 mph NE9.7 kmh NE 10.1 mph16.3 kmh 24.86 in841.9 mb 0.00 in0.0 mm 0.00 in/hr0.0 mm/hr 0.00 in0.0 mm
03:31 PM 72.0°F22.2°C -5537.2°C - 6.0 mph NE9.7 kmh NE 9.2 mph14.8 kmh 24.86 in841.9 mb 0.00 in0.0 mm 0.00 in/hr0.0 mm/hr 0.00 in0.0 mm
03:36 PM 72.1°F22.3°C -5537.2°C - 5.0 mph NE8.0 kmh NE 7.4 mph11.9 kmh 24.86 in841.9 mb 0.00 in0.0 mm 0.00 in/hr0.0 mm/hr 0.00 in0.0 mm
03:41 PM 72.3°F22.4°C -5537.2°C - 4.0 mph ENE6.4 kmh ENE 11.0 mph17.7 kmh 24.86 in841.9 mb 0.00 in0.0 mm 0.00 in/hr0.0 mm/hr 0.00 in0.0 mm
03:46 PM 72.9°F22.7°C -5537.2°C - 4.0 mph NE6.4 kmh NE 8.7 mph14.0 kmh 24.86 in841.9 mb 0.00 in0.0 mm 0.00 in/hr0.0 mm/hr 0.00 in0.0 mm
03:51 PM 73.4°F23.0°C -5537.2°C - 4.0 mph NNE6.4 kmh NNE 8.7 mph14.0 kmh 24.86 in841.9 mb 0.00 in0.0 mm 0.00 in/hr0.0 mm/hr 0.00 in0.0 mm
03:56 PM 72.9°F22.7°C -5537.2°C - 4.0 mph NE6.4 kmh NE 7.8 mph12.6 kmh 24.86 in841.9 mb 0.00 in0.0 mm 0.00 in/hr0.0 mm/hr 0.00 in0.0 mm
04:01 PM 72.9°F22.7°C -5537.2°C - 5.0 mph ENE8.0 kmh ENE 7.4 mph11.9 kmh 24.86 in841.9 mb 0.00 in0.0 mm 0.00 in/hr0.0 mm/hr 0.00 in0.0 mm
04:06 PM 72.9°F22.7°C -5537.2°C - 5.0 mph E8.0 kmh E 8.7 mph14.0 kmh 24.86 in841.9 mb 0.00 in0.0 mm 0.00 in/hr0.0 mm/hr 0.00 in0.0 mm
04:11 PM 72.9°F22.7°C -5537.2°C - 6.0 mph E9.7 kmh E 11.0 mph17.7 kmh 24.86 in841.9 mb 0.00 in0.0 mm 0.00 in/hr0.0 mm/hr 0.00 in0.0 mm
04:16 PM 73.4°F23.0°C -5537.2°C - 5.0 mph E8.0 kmh E 6.9 mph11.1 kmh 24.86 in841.9 mb 0.00 in0.0 mm 0.00 in/hr0.0 mm/hr 0.00 in0.0 mm
04:21 PM 73.4°F23.0°C -5537.2°C - 4.0 mph E6.4 kmh E 6.3 mph10.1 kmh 24.86 in841.9 mb 0.00 in0.0 mm 0.00 in/hr0.0 mm/hr 0.00 in0.0 mm
04:26 PM 73.4°F23.0°C -5537.2°C - 4.0 mph SE6.4 kmh SE 9.2 mph14.8 kmh 24.86 in841.9 mb 0.00 in0.0 mm 0.00 in/hr0.0 mm/hr 0.00 in0.0 mm
04:31 PM 73.6°F23.1°C -5537.2°C - 4.0 mph SE6.4 kmh SE 6.7 mph10.8 kmh 24.86 in841.9 mb 0.00 in0.0 mm 0.00 in/hr0.0 mm/hr 0.00 in0.0 mm
04:36 PM 73.4°F23.0°C -5537.2°C - 4.0 mph SE6.4 kmh SE 6.9 mph11.1 kmh 24.86 in841.9 mb 0.00 in0.0 mm 0.00 in/hr0.0 mm/hr 0.00 in0.0 mm
04:41 PM 73.6°F23.1°C -5537.2°C - 2.0 mph SE3.2 kmh SE 4.5 mph7.2 kmh 24.86 in841.9 mb 0.00 in0.0 mm 0.00 in/hr0.0 mm/hr 0.00 in0.0 mm
04:46 PM 73.6°F23.1°C -5537.2°C - 1.0 mph SE1.6 kmh SE 6.7 mph10.8 kmh 24.86 in841.9 mb 0.00 in0.0 mm 0.00 in/hr0.0 mm/hr 0.00 in0.0 mm
04:51 PM 73.6°F23.1°C -5537.2°C - 1.0 mph SE1.6 kmh SE 3.1 mph5.0 kmh 24.86 in841.9 mb 0.00 in0.0 mm 0.00 in/hr0.0 mm/hr 0.00 in0.0 mm
04:56 PM 73.6°F23.1°C -5537.2°C - Calm Calm 5.8 mph9.3 kmh 24.86 in841.9 mb 0.00 in0.0 mm 0.00 in/hr0.0 mm/hr 0.00 in0.0 mm
05:02 PM 73.4°F23.0°C -5537.2°C - 3.0 mph ENE4.8 kmh ENE 9.6 mph15.4 kmh 24.86 in841.9 mb 0.00 in0.0 mm 0.00 in/hr0.0 mm/hr 0.00 in0.0 mm
05:07 PM 73.2°F22.9°C -5537.2°C - 5.0 mph NE8.0 kmh NE 6.7 mph10.8 kmh 24.86 in841.9 mb 0.00 in0.0 mm 0.00 in/hr0.0 mm/hr 0.00 in0.0 mm
05:12 PM 73.2°F22.9°C -5537.2°C - 4.0 mph NE6.4 kmh NE 7.8 mph12.6 kmh 24.86 in841.9 mb 0.00 in0.0 mm 0.00 in/hr0.0 mm/hr 0.00 in0.0 mm
05:17 PM 73.2°F22.9°C -5537.2°C - 5.0 mph NE8.0 kmh NE 8.7 mph14.0 kmh 24.86 in841.9 mb 0.00 in0.0 mm 0.00 in/hr0.0 mm/hr 0.00 in0.0 mm
05:22 PM 73.4°F23.0°C -5537.2°C - 3.0 mph NE4.8 kmh NE 4.9 mph7.9 kmh 24.86 in841.9 mb 0.00 in0.0 mm 0.00 in/hr0.0 mm/hr 0.00 in0.0 mm
05:27 PM 73.6°F23.1°C -5537.2°C - 2.0 mph ENE3.2 kmh ENE 6.7 mph10.8 kmh 24.86 in841.9 mb 0.00 in0.0 mm 0.00 in/hr0.0 mm/hr 0.00 in0.0 mm
05:32 PM 73.8°F23.2°C -5537.2°C - 2.0 mph E3.2 kmh E 6.3 mph10.1 kmh 24.86 in841.9 mb 0.00 in0.0 mm 0.00 in/hr0.0 mm/hr 0.00 in0.0 mm
05:37 PM 73.2°F22.9°C -5537.2°C - 3.0 mph E4.8 kmh E 8.7 mph14.0 kmh 24.86 in841.9 mb 0.00 in0.0 mm 0.00 in/hr0.0 mm/hr 0.00 in0.0 mm
05:42 PM 73.0°F22.8°C -5537.2°C - 4.0 mph E6.4 kmh E 6.9 mph11.1 kmh 24.86 in841.9 mb 0.00 in0.0 mm 0.00 in/hr0.0 mm/hr 0.00 in0.0 mm
05:47 PM 73.0°F22.8°C -5537.2°C - 4.0 mph E6.4 kmh E 8.7 mph14.0 kmh 24.86 in841.9 mb 0.00 in0.0 mm 0.00 in/hr0.0 mm/hr 0.00 in0.0 mm
05:52 PM 72.7°F22.6°C -5537.2°C - 5.0 mph ENE8.0 kmh ENE 7.8 mph12.6 kmh 24.86 in841.9 mb 0.00 in0.0 mm 0.00 in/hr0.0 mm/hr 0.00 in0.0 mm
05:57 PM 72.9°F22.7°C -5537.2°C - 4.0 mph NE6.4 kmh NE 5.8 mph9.3 kmh 24.86 in841.9 mb 0.00 in0.0 mm 0.00 in/hr0.0 mm/hr 0.00 in0.0 mm
06:02 PM 72.7°F22.6°C -5537.2°C - 3.0 mph NE4.8 kmh NE 6.9 mph11.1 kmh 24.86 in841.9 mb 0.00 in0.0 mm 0.00 in/hr0.0 mm/hr 0.00 in0.0 mm
06:07 PM 72.5°F22.5°C -5537.2°C - 3.0 mph NE4.8 kmh NE 5.8 mph9.3 kmh 24.86 in841.9 mb 0.00 in0.0 mm 0.00 in/hr0.0 mm/hr 0.00 in0.0 mm
06:12 PM 72.5°F22.5°C -5537.2°C - 3.0 mph E4.8 kmh E 5.4 mph8.7 kmh 24.86 in841.9 mb 0.00 in0.0 mm 0.00 in/hr0.0 mm/hr 0.00 in0.0 mm
06:17 PM 72.3°F22.4°C -5537.2°C - 3.0 mph E4.8 kmh E 5.4 mph8.7 kmh 24.86 in841.9 mb 0.00 in0.0 mm 0.00 in/hr0.0 mm/hr 0.00 in0.0 mm
06:22 PM 72.3°F22.4°C -5537.2°C - 2.0 mph E3.2 kmh E 4.9 mph7.9 kmh 24.86 in841.9 mb 0.00 in0.0 mm 0.00 in/hr0.0 mm/hr 0.00 in0.0 mm
06:27 PM 72.3°F22.4°C -5537.2°C - 2.0 mph ENE3.2 kmh ENE 4.9 mph7.9 kmh 24.86 in841.9 mb 0.00 in0.0 mm 0.00 in/hr0.0 mm/hr 0.00 in0.0 mm
06:32 PM 72.3°F22.4°C -5537.2°C - 2.0 mph NE3.2 kmh NE 3.6 mph5.8 kmh 24.86 in841.9 mb 0.00 in0.0 mm 0.00 in/hr0.0 mm/hr 0.00 in0.0 mm
06:37 PM 72.3°F22.4°C -5537.2°C - Calm Calm -- 24.86 in841.9 mb 0.00 in0.0 mm 0.00 in/hr0.0 mm/hr 0.00 in0.0 mm
06:42 PM 72.1°F22.3°C -5537.2°C - Calm Calm 4.0 mph6.4 kmh 24.86 in841.9 mb 0.00 in0.0 mm 0.00 in/hr0.0 mm/hr 0.00 in0.0 mm
06:47 PM 72.0°F22.2°C -5537.2°C - 2.0 mph NE3.2 kmh NE 6.3 mph10.1 kmh 24.86 in841.9 mb 0.00 in0.0 mm 0.00 in/hr0.0 mm/hr 0.00 in0.0 mm
06:52 PM 71.6°F22.0°C -5537.2°C - 6.0 mph WSW9.7 kmh WSW 28.4 mph45.7 kmh 24.86 in841.9 mb 0.00 in0.0 mm 0.00 in/hr0.0 mm/hr 0.00 in0.0 mm
06:57 PM 71.1°F21.7°C -5537.2°C - 10.0 mph WSW16.1 kmh WSW 30.4 mph48.9 kmh 24.89 in842.9 mb 0.00 in0.0 mm 0.00 in/hr0.0 mm/hr 0.00 in0.0 mm
07:02 PM 71.2°F21.8°C -5537.2°C - 10.0 mph W16.1 kmh W 16.3 mph26.2 kmh 24.89 in842.9 mb 0.00 in0.0 mm 0.00 in/hr0.0 mm/hr 0.00 in0.0 mm
07:07 PM 70.3°F21.3°C -5537.2°C - 10.0 mph WSW16.1 kmh WSW 19.9 mph32.0 kmh 24.89 in842.9 mb 0.00 in0.0 mm 0.00 in/hr0.0 mm/hr 0.00 in0.0 mm
07:12 PM 70.0°F21.1°C -5537.2°C - 10.0 mph WSW16.1 kmh WSW 13.9 mph22.4 kmh 24.89 in842.9 mb 0.00 in0.0 mm 0.00 in/hr0.0 mm/hr 0.00 in0.0 mm
07:17 PM 70.2°F21.2°C -5537.2°C - 8.0 mph WSW12.9 kmh WSW 15.9 mph25.6 kmh 24.89 in842.9 mb 0.00 in0.0 mm 0.00 in/hr0.0 mm/hr 0.00 in0.0 mm
07:22 PM 70.3°F21.3°C -5537.2°C - 8.0 mph WSW12.9 kmh WSW 13.0 mph20.9 kmh 24.89 in842.9 mb 0.00 in0.0 mm 0.00 in/hr0.0 mm/hr 0.00 in0.0 mm
07:27 PM 70.3°F21.3°C -5537.2°C - 7.0 mph WSW11.3 kmh WSW 10.1 mph16.3 kmh 24.89 in842.9 mb 0.00 in0.0 mm 0.00 in/hr0.0 mm/hr 0.00 in0.0 mm
07:32 PM 70.5°F21.4°C -5537.2°C - 8.0 mph SW12.9 kmh SW 14.3 mph23.0 kmh 24.89 in842.9 mb 0.00 in0.0 mm 0.00 in/hr0.0 mm/hr 0.00 in0.0 mm
07:37 PM 70.5°F21.4°C -5537.2°C - 9.0 mph SW14.5 kmh SW 11.6 mph18.7 kmh 24.89 in842.9 mb 0.00 in0.0 mm 0.00 in/hr0.0 mm/hr 0.00 in0.0 mm
07:42 PM 70.3°F21.3°C -5537.2°C - 8.0 mph SW12.9 kmh SW 10.5 mph16.9 kmh 24.89 in842.9 mb 0.00 in0.0 mm 0.00 in/hr0.0 mm/hr 0.00 in0.0 mm
07:47 PM 70.2°F21.2°C -5537.2°C - 7.0 mph SW11.3 kmh SW 9.6 mph15.4 kmh 24.89 in842.9 mb 0.00 in0.0 mm 0.00 in/hr0.0 mm/hr 0.00 in0.0 mm
07:53 PM 70.0°F21.1°C -5537.2°C - 6.0 mph SW9.7 kmh SW 9.6 mph15.4 kmh 24.89 in842.9 mb 0.00 in0.0 mm 0.00 in/hr0.0 mm/hr 0.00 in0.0 mm
07:58 PM 69.8°F21.0°C -5537.2°C - 6.0 mph SW9.7 kmh SW 10.5 mph16.9 kmh 24.89 in842.9 mb 0.00 in0.0 mm 0.00 in/hr0.0 mm/hr 0.00 in0.0 mm
08:03 PM 69.6°F20.9°C -5537.2°C - 5.0 mph SW8.0 kmh SW 7.4 mph11.9 kmh 24.89 in842.9 mb 0.00 in0.0 mm 0.00 in/hr0.0 mm/hr 0.00 in0.0 mm
08:08 PM 69.3°F20.7°C -5537.2°C - 5.0 mph SW8.0 kmh SW 9.2 mph14.8 kmh 24.89 in842.9 mb 0.00 in0.0 mm 0.00 in/hr0.0 mm/hr 0.00 in0.0 mm
08:13 PM 69.1°F20.6°C -5537.2°C - 6.0 mph SW9.7 kmh SW 9.6 mph15.4 kmh 24.89 in842.9 mb 0.00 in0.0 mm 0.00 in/hr0.0 mm/hr 0.00 in0.0 mm
08:18 PM 68.7°F20.4°C -5537.2°C - 6.0 mph SW9.7 kmh SW 8.3 mph13.4 kmh 24.89 in842.9 mb 0.00 in0.0 mm 0.00 in/hr0.0 mm/hr 0.00 in0.0 mm
08:23 PM 68.4°F20.2°C -5537.2°C - 5.0 mph SW8.0 kmh SW 6.7 mph10.8 kmh 24.89 in842.9 mb 0.00 in0.0 mm 0.00 in/hr0.0 mm/hr 0.00 in0.0 mm
08:28 PM 68.2°F20.1°C -5537.2°C - 4.0 mph SSW6.4 kmh SSW 6.9 mph11.1 kmh 24.89 in842.9 mb 0.00 in0.0 mm 0.00 in/hr0.0 mm/hr 0.00 in0.0 mm
08:33 PM 67.6°F19.8°C -5537.2°C - 3.0 mph SW4.8 kmh SW 4.0 mph6.4 kmh 24.89 in842.9 mb 0.00 in0.0 mm 0.00 in/hr0.0 mm/hr 0.00 in0.0 mm
08:38 PM 67.1°F19.5°C -5537.2°C - 2.0 mph SW3.2 kmh SW 4.0 mph6.4 kmh 24.89 in842.9 mb 0.00 in0.0 mm 0.00 in/hr0.0 mm/hr 0.00 in0.0 mm
08:43 PM 66.7°F19.3°C -5537.2°C - 3.0 mph WSW4.8 kmh WSW 6.9 mph11.1 kmh 24.89 in842.9 mb 0.00 in0.0 mm 0.00 in/hr0.0 mm/hr 0.00 in0.0 mm
08:48 PM 67.3°F19.6°C -5537.2°C - 4.0 mph NW6.4 kmh NW 7.8 mph12.6 kmh 24.89 in842.9 mb 0.00 in0.0 mm 0.00 in/hr0.0 mm/hr 0.00 in0.0 mm
08:53 PM 67.6°F19.8°C -5537.2°C - 4.0 mph N6.4 kmh N 6.9 mph11.1 kmh 24.89 in842.9 mb 0.00 in0.0 mm 0.00 in/hr0.0 mm/hr 0.00 in0.0 mm
08:58 PM 66.4°F19.1°C -5537.2°C - 5.0 mph N8.0 kmh N 7.8 mph12.6 kmh 24.89 in842.9 mb 0.00 in0.0 mm 0.00 in/hr0.0 mm/hr 0.00 in0.0 mm
09:03 PM 65.1°F18.4°C -5537.2°C - 5.0 mph NNE8.0 kmh NNE 6.7 mph10.8 kmh 24.89 in842.9 mb 0.00 in0.0 mm 0.00 in/hr0.0 mm/hr 0.00 in0.0 mm
09:08 PM 65.1°F18.4°C -5537.2°C - 5.0 mph NNE8.0 kmh NNE 6.7 mph10.8 kmh 24.89 in842.9 mb 0.00 in0.0 mm 0.00 in/hr0.0 mm/hr 0.00 in0.0 mm
09:13 PM 65.1°F18.4°C -5537.2°C - 5.0 mph NNE8.0 kmh NNE 6.3 mph10.1 kmh 24.89 in842.9 mb 0.00 in0.0 mm 0.00 in/hr0.0 mm/hr 0.00 in0.0 mm
09:18 PM 64.4°F18.0°C -5537.2°C - 3.0 mph NNE4.8 kmh NNE 4.0 mph6.4 kmh 24.89 in842.9 mb 0.00 in0.0 mm 0.00 in/hr0.0 mm/hr 0.00 in0.0 mm
09:23 PM 63.9°F17.7°C 12.0°F-11.1°C 13% 1.0 mph NNE1.6 kmh NNE 3.6 mph5.8 kmh 24.89 in842.9 mb 0.00 in0.0 mm 0.00 in/hr0.0 mm/hr 0.00 in0.0 mm
09:28 PM 63.1°F17.3°C 11.5°F-11.4°C 13% Calm Calm -- 24.92 in843.9 mb 0.00 in0.0 mm 0.00 in/hr0.0 mm/hr 0.00 in0.0 mm
09:33 PM 63.0°F17.2°C 11.3°F-11.5°C 13% Calm Calm 3.6 mph5.8 kmh 24.92 in843.9 mb 0.00 in0.0 mm 0.00 in/hr0.0 mm/hr 0.00 in0.0 mm
09:38 PM 63.5°F17.5°C 11.8°F-11.2°C 13% 1.0 mph NE1.6 kmh NE 3.1 mph5.0 kmh 24.92 in843.9 mb 0.00 in0.0 mm 0.00 in/hr0.0 mm/hr 0.00 in0.0 mm
09:43 PM 64.2°F17.9°C 12.4°F-10.9°C 13% 1.0 mph NE1.6 kmh NE 4.5 mph7.2 kmh 24.92 in843.9 mb 0.00 in0.0 mm 0.00 in/hr0.0 mm/hr 0.00 in0.0 mm
09:48 PM 61.9°F16.6°C 10.6°F-11.9°C 13% 2.0 mph NE3.2 kmh NE 5.4 mph8.7 kmh 24.92 in843.9 mb 0.00 in0.0 mm 0.00 in/hr0.0 mm/hr 0.00 in0.0 mm
09:53 PM 61.7°F16.5°C 15.1°F-9.4°C 16% 2.0 mph NE3.2 kmh NE 4.9 mph7.9 kmh 24.92 in843.9 mb 0.00 in0.0 mm 0.00 in/hr0.0 mm/hr 0.00 in0.0 mm
09:58 PM 60.1°F15.6°C 13.8°F-10.1°C 16% 2.0 mph S3.2 kmh S 4.5 mph7.2 kmh 24.92 in843.9 mb 0.00 in0.0 mm 0.00 in/hr0.0 mm/hr 0.00 in0.0 mm
10:03 PM 59.9°F15.5°C 13.6°F-10.2°C 16% 1.0 mph WSW1.6 kmh WSW 4.0 mph6.4 kmh 24.92 in843.9 mb 0.00 in0.0 mm 0.00 in/hr0.0 mm/hr 0.00 in0.0 mm
10:08 PM 59.5°F15.3°C 17.2°F-8.2°C 19% 1.0 mph NNW1.6 kmh NNW 4.0 mph6.4 kmh 24.92 in843.9 mb 0.00 in0.0 mm 0.00 in/hr0.0 mm/hr 0.00 in0.0 mm
10:13 PM 60.8°F16.0°C 20.7°F-6.3°C 21% Calm Calm 4.0 mph6.4 kmh 24.92 in843.9 mb 0.00 in0.0 mm 0.00 in/hr0.0 mm/hr 0.00 in0.0 mm
10:18 PM 60.8°F16.0°C 18.3°F-7.6°C 19% 2.0 mph NNE3.2 kmh NNE 6.3 mph10.1 kmh 24.92 in843.9 mb 0.00 in0.0 mm 0.00 in/hr0.0 mm/hr 0.00 in0.0 mm
10:23 PM 60.6°F15.9°C 18.1°F-7.7°C 19% 4.0 mph SE6.4 kmh SE 4.9 mph7.9 kmh 24.92 in843.9 mb 0.00 in0.0 mm 0.00 in/hr0.0 mm/hr 0.00 in0.0 mm
10:28 PM 61.2°F16.2°C 18.5°F-7.5°C 19% 1.0 mph SE1.6 kmh SE 2.7 mph4.3 kmh 24.92 in843.9 mb 0.00 in0.0 mm 0.00 in/hr0.0 mm/hr 0.00 in0.0 mm
10:33 PM 60.8°F16.0°C 18.3°F-7.6°C 19% Calm Calm -- 24.92 in843.9 mb 0.00 in0.0 mm 0.00 in/hr0.0 mm/hr 0.00 in0.0 mm
10:38 PM 60.4°F15.8°C 18.0°F-7.8°C 19% Calm Calm -- 24.92 in843.9 mb 0.00 in0.0 mm 0.00 in/hr0.0 mm/hr 0.00 in0.0 mm
10:43 PM 59.4°F15.2°C 17.1°F-8.3°C 19% Calm Calm -- 24.92 in843.9 mb 0.00 in0.0 mm 0.00 in/hr0.0 mm/hr 0.00 in0.0 mm
10:48 PM 59.9°F15.5°C 17.6°F-8.0°C 19% Calm Calm -- 24.92 in843.9 mb 0.00 in0.0 mm 0.00 in/hr0.0 mm/hr 0.00 in0.0 mm
10:53 PM 60.4°F15.8°C 18.0°F-7.8°C 19% Calm Calm 5.4 mph8.7 kmh 24.92 in843.9 mb 0.00 in0.0 mm 0.00 in/hr0.0 mm/hr 0.00 in0.0 mm
10:58 PM 60.4°F15.8°C 14.0°F-10.0°C 16% 1.0 mph SE1.6 kmh SE 3.6 mph5.8 kmh 24.92 in843.9 mb 0.00 in0.0 mm 0.00 in/hr0.0 mm/hr 0.00 in0.0 mm
11:03 PM 59.9°F15.5°C 15.1°F-9.4°C 17% 1.0 mph SE1.6 kmh SE 3.1 mph5.0 kmh 24.92 in843.9 mb 0.00 in0.0 mm 0.00 in/hr0.0 mm/hr 0.00 in0.0 mm
11:08 PM 60.3°F15.7°C 13.8°F-10.1°C 16% Calm Calm -- 24.92 in843.9 mb 0.00 in0.0 mm 0.00 in/hr0.0 mm/hr 0.00 in0.0 mm
11:13 PM 60.8°F16.0°C 14.4°F-9.8°C 16% Calm Calm -- 24.92 in843.9 mb 0.00 in0.0 mm 0.00 in/hr0.0 mm/hr 0.00 in0.0 mm
11:18 PM 60.8°F16.0°C 14.4°F-9.8°C 16% 1.0 mph SSE1.6 kmh SSE 6.7 mph10.8 kmh 24.92 in843.9 mb 0.00 in0.0 mm 0.00 in/hr0.0 mm/hr 0.00 in0.0 mm
11:23 PM 60.6°F15.9°C 14.2°F-9.9°C 16% 4.0 mph SE6.4 kmh SE 6.3 mph10.1 kmh 24.92 in843.9 mb 0.00 in0.0 mm 0.00 in/hr0.0 mm/hr 0.00 in0.0 mm
11:28 PM 61.3°F16.3°C 14.7°F-9.6°C 16% 3.0 mph SE4.8 kmh SE 4.0 mph6.4 kmh 24.92 in843.9 mb 0.00 in0.0 mm 0.00 in/hr0.0 mm/hr 0.00 in0.0 mm
11:33 PM 61.3°F16.3°C 14.7°F-9.6°C 16% 2.0 mph SE3.2 kmh SE 3.6 mph5.8 kmh 24.92 in843.9 mb 0.00 in0.0 mm 0.00 in/hr0.0 mm/hr 0.00 in0.0 mm
11:38 PM 60.8°F16.0°C 14.4°F-9.8°C 16% 1.0 mph SE1.6 kmh SE 3.1 mph5.0 kmh 24.92 in843.9 mb 0.00 in0.0 mm 0.00 in/hr0.0 mm/hr 0.00 in0.0 mm
11:43 PM 60.4°F15.8°C 14.0°F-10.0°C 16% Calm Calm 3.6 mph5.8 kmh 24.92 in843.9 mb 0.00 in0.0 mm 0.00 in/hr0.0 mm/hr 0.00 in0.0 mm
11:48 PM 59.7°F15.4°C 14.9°F-9.5°C 17% Calm Calm -- 24.92 in843.9 mb 0.00 in0.0 mm 0.00 in/hr0.0 mm/hr 0.00 in0.0 mm
11:53 PM 59.5°F15.3°C 17.2°F-8.2°C 19% Calm Calm 3.6 mph5.8 kmh 24.92 in843.9 mb 0.00 in0.0 mm 0.00 in/hr0.0 mm/hr 0.00 in0.0 mm
11:58 PM 59.4°F15.2°C 17.1°F-8.3°C 19% 1.0 mph SE1.6 kmh SE 4.5 mph7.2 kmh 24.92 in843.9 mb 0.00 in0.0 mm 0.00 in/hr0.0 mm/hr 0.00 in0.0 mm